Latest Coastal Weather Observations for Kalumburu

IDW60701

Issued at 6:32 am WST Sunday 31 July 2016 (issued every 10 minutes, with the page automatically refreshed every 10 minutes)

About coastal observations | Map of coastal stations | Coastal observations for WA | Marine services | Other Formats
Station Details ID: 001019 Name: KALUMBURU Lat: -14.30 Lon: 126.65 Height: 23.0 m
Data from the previous 72 hours. | See also: Recent months at Kalumburu
Date/Time
WST
Temp
°C
Wind Pressure Rain since
9am
mm
Weather Cloud Vis
km
Sea
Height
m
Swell
Dir  Spd
kts
Gust
kts
hPa Trend Height
m
Period
s
Dir
31/06:30am 17.5 SSW 6 8 1014.2 - 0.0 - - - - - - -
31/06:00am 17.5 S 5 8 1013.9 - 0.0 - - - - - - -
31/05:30am 15.7 S 4 6 1013.6 - 0.0 - - - - - - -
31/05:00am 13.3 S 4 6 1013.4 - 0.0 - - - - - - -
31/04:30am 11.6 CALM 0 0 1013.3 - 0.0 - - - - - - -
31/04:00am 11.8 S 3 5 1013.3 - 0.0 - - - - - - -
31/03:30am 12.2 S 1 4 1013.2 - 0.0 - - - - - - -
31/03:00am 12.5 CALM 0 2 1013.2 - 0.0 - - - - - - -
31/02:30am 12.4 CALM 0 0 1013.1 - 0.0 - - - - - - -
31/02:00am 12.8 CALM 0 3 1013.1 - 0.0 - - - - - - -
31/01:30am 12.8 CALM 0 0 1013.2 - 0.0 - - - - - - -
31/01:00am 12.3 S 2 5 1013.3 - 0.0 - - - - - - -
31/12:30am 12.9 CALM 0 0 1013.4 - 0.0 - - - - - - -
31/12:00am 13.3 CALM 0 0 1013.6 - 0.0 - - - - - - -
 
Date/Time
WST
Temp
°C
Wind Pressure Rain since
9am
mm
Weather Cloud Vis
km
Sea
Height
m
Swell
Dir  Spd
kts
Gust
kts
hPa Trend Height
m
Period
s
Dir
30/11:30pm 14.0 CALM 0 0 1013.7 - 0.0 - - - - - - -
30/11:00pm 14.8 CALM 0 0 1013.9 - 0.0 - - - - - - -
30/10:30pm 15.4 ENE 1 5 1013.9 - 0.0 - - - - - - -
30/10:00pm 16.1 SE 1 5 1013.9 - 0.0 - - - - - - -
30/09:30pm 17.5 CALM 0 0 1014.0 - 0.0 - - - - - - -
30/09:00pm 18.5 CALM 0 0 1013.9 - 0.0 - - - - - - -
30/08:30pm 20.4 SW 1 4 1014.0 - 0.0 - - - - - - -
30/08:00pm 22.2 CALM 0 0 1013.6 - 0.0 - - - - - - -
30/07:30pm 24.0 WNW 4 5 1013.3 - 0.0 - - - - - - -
30/07:00pm 26.1 NE 4 7 1012.9 - 0.0 - - - - - - -
30/06:30pm 27.0 ENE 5 7 1012.4 - 0.0 - - - - - - -
30/06:00pm 24.7 E 1 3 1011.9 - 0.0 - - - - - - -
30/05:30pm 26.5 E 2 6 1011.4 - 0.0 - - - - - - -
30/05:00pm 29.4 W 1 3 1011.0 - 0.0 - - - - - - -
30/04:30pm 32.1 ENE 2 6 1010.8 - 0.0 - - - - - - -
30/04:00pm 32.3 SSE 5 8 1010.6 - 0.0 - - - - - - -
30/03:30pm 32.5 SE 6 11 1010.5 - 0.0 - - - - - - -
30/03:00pm 33.3 SSE 4 8 1010.6 - 0.0 - - - - - - -
30/02:30pm 33.5 ESE 5 10 1010.7 - 0.0 - - - - - - -
30/02:00pm 32.8 E 7 11 1010.9 - 0.0 - - - - - - -
30/01:30pm 32.7 ESE 6 12 1011.2 - 0.0 - - - - - - -
30/01:00pm 33.2 NE 7 11 1011.5 - 0.0 - - - - - - -
30/12:30pm 32.8 E 6 11 1012.2 - 0.0 - - - - - - -
30/12:00pm 32.9 E 6 13 1012.8 - 0.0 - - - - - - -
30/11:30am 32.1 E 9 14 1013.6 - 0.0 - - - - - - -
30/11:00am 31.5 ESE 7 13 1014.2 - 0.0 - - - - - - -
30/10:30am 30.8 ESE 9 17 1014.6 - 0.0 - - - - - - -
30/10:00am 30.5 ESE 8 16 1014.9 - 0.0 - - - - - - -
30/09:30am 29.6 SE 10 19 1015.1 - 0.0 - - - - - - -
30/09:00am 28.3 ESE 10 18 1015.2 - 0.0 - - - - - - -
30/08:30am 27.4 SE 9 17 1015.3 - 0.0 - - - - - - -
30/08:00am 26.6 SE 7 13 1015.2 - 0.0 - - - - - - -
30/07:30am 25.1 SE 6 12 1015.1 - 0.0 - - - - - - -
30/07:00am 22.1 SW 5 6 1015.0 - 0.0 - - - - - - -
30/06:30am 19.9 SW 4 6 1014.7 - 0.0 - - - - - - -
30/06:00am 19.7 SW 5 7 1014.4 - 0.0 - - - - - - -
30/05:30am 19.8 SW 5 7 1014.0 - 0.0 - - - - - - -
30/05:00am 19.4 SSW 5 6 1013.7 - 0.0 - - - - - - -
30/04:30am 18.8 SW 4 6 1013.5 - 0.0 - - - - - - -
30/04:00am 15.7 SW 4 6 1013.3 - 0.0 - - - - - - -
30/03:30am 16.7 SW 4 5 1013.3 - 0.0 - - - - - - -
30/03:00am 14.7 SSW 4 6 1013.4 - 0.0 - - - - - - -
30/02:30am 14.2 SSW 3 5 1013.4 - 0.0 - - - - - - -
30/02:00am 15.1 SSW 4 5 1013.6 - 0.0 - - - - - - -
30/01:30am 16.0 CALM 0 0 1013.7 - 0.0 - - - - - - -
30/01:00am 17.1 CALM 0 0 1013.7 - 0.0 - - - - - - -
30/12:30am 17.2 SSW 2 4 1014.0 - 0.0 - - - - - - -
30/12:00am 18.1 SSE 3 4 1014.1 - 0.0 - - - - - - -
 
Date/Time
WST
Temp
°C
Wind Pressure Rain since
9am
mm
Weather Cloud Vis
km
Sea
Height
m
Swell
Dir  Spd
kts
Gust
kts
hPa Trend Height
m
Period
s
Dir
29/11:30pm 19.5 S 2 4 1014.4 - 0.0 - - - - - - -
29/11:00pm 21.1 WSW 4 5 1014.4 - 0.0 - - - - - - -
29/10:30pm 20.2 WSW 2 4 1014.4 - 0.0 - - - - - - -
29/10:00pm 21.2 CALM 0 0 1014.7 - 0.0 - - - - - - -
29/09:30pm 22.4 ESE 2 4 1014.8 - 0.0 - - - - - - -
29/09:00pm 24.4 ESE 5 7 1014.9 - 0.0 - - - - - - -
29/08:30pm 25.3 ESE 6 8 1014.6 - 0.0 - - - - - - -
29/08:00pm 24.9 ESE 6 9 1014.5 - 0.0 - - - - - - -
29/07:30pm 24.6 ESE 5 8 1014.3 - 0.0 - - - - - - -
29/07:00pm 22.6 ESE 4 5 1014.0 - 0.0 - - - - - - -
29/06:30pm 22.9 CALM 0 0 1013.5 - 0.0 - - - - - - -
29/06:00pm 24.3 SE 2 4 1012.9 - 0.0 - - - - - - -
29/05:30pm 26.6 SSE 3 4 1012.6 - 0.0 - - - - - - -
29/05:00pm 29.2 SSE 4 6 1012.1 - 0.0 - - - - - - -
29/04:30pm 30.8 SE 5 9 1011.9 - 0.0 - - - - - - -
29/04:00pm 31.6 E 6 11 1011.8 - 0.0 - - - - - - -
29/03:30pm 32.4 E 6 9 1011.6 - 0.0 - - - - - - -
29/03:00pm 32.4 ENE 5 10 1011.7 - 0.0 - - - - - - -
29/02:30pm 32.5 E 8 13 1011.7 - 0.0 - - - - - - -
29/02:00pm 32.1 SE 8 12 1011.8 - 0.0 - - - - - - -
29/01:30pm 32.4 ESE 7 11 1012.2 - 0.0 - - - - - - -
29/01:00pm 32.6 E 9 15 1012.6 - 0.0 - - - - - - -
29/12:30pm 31.9 ESE 8 13 1013.0 - 0.0 - - - - - - -
29/12:00pm 31.8 SE 7 13 1013.5 - 0.0 - - - - - - -
29/11:30am 32.1 ESE 8 15 1014.0 - 0.0 - - - - - - -
29/11:00am 31.0 E 9 16 1014.6 - 0.0 - - - - - - -
29/10:30am 30.5 SE 8 14 1014.9 - 0.0 - - - - - - -
29/10:00am 29.7 ESE 9 16 1015.4 - 0.0 - - - - - - -
29/09:30am 29.4 ESE 8 14 1015.7 - 0.0 - - - - - - -
29/09:00am 28.7 ESE 8 17 1015.7 - 0.0 - - - - - - -
29/08:30am 26.8 SE 11 19 1015.9 - 0.0 - - - - - - -
29/08:00am 25.8 SE 11 19 1015.8 - 0.0 - - - - - - -
29/07:30am 25.0 SE 7 15 1015.9 - 0.0 - - - - - - -
29/07:00am 23.5 SSW 4 8 1015.9 - 0.0 - - - - - - -
29/06:30am 21.0 WSW 3 5 1015.6 - 0.0 - - - - - - -
29/06:00am 20.2 SW 4 5 1015.4 - 0.0 - - - - - - -
29/05:30am 20.9 SW 5 7 1015.0 - 0.0 - - - - - - -
29/05:00am 20.6 WSW 5 6 1014.8 - 0.0 - - - - - - -
29/04:30am 20.3 SW 4 6 1014.7 - 0.0 - - - - - - -
29/04:00am 20.1 SW 4 5 1014.5 - 0.0 - - - - - - -
29/03:30am 20.2 SSW 4 6 1014.5 - 0.0 - - - - - - -
29/03:00am 20.0 SSW 5 6 1014.7 - 0.0 - - - - - - -
29/02:30am 17.8 SW 4 5 1014.7 - 0.0 - - - - - - -
29/02:00am 16.8 SSW 3 4 1014.9 - 0.0 - - - - - - -
29/01:30am 18.0 CALM 0 0 1015.2 - 0.0 - - - - - - -
29/01:00am 17.4 CALM 0 0 1015.4 - 0.0 - - - - - - -
29/12:30am 18.3 SSE 2 4 1015.4 - 0.0 - - - - - - -
29/12:00am 19.5 SSE 3 4 1015.4 - 0.0 - - - - - - -
 
Date/Time
WST
Temp
°C
Wind Pressure Rain since
9am
mm
Weather Cloud Vis
km
Sea
Height
m
Swell
Dir  Spd
kts
Gust
kts
hPa Trend Height
m
Period
s
Dir
28/11:30pm 19.6 SSE 3 4 1015.5 - 0.0 - - - - - - -
28/11:00pm 21.6 E 4 5 1015.6 - 0.0 - - - - - - -
28/10:30pm 22.2 ESE 4 6 1015.7 - 0.0 - - - - - - -
28/10:00pm 20.4 ESE 4 6 1015.7 - 0.0 - - - - - - -
28/09:30pm 19.6 ESE 3 4 1015.6 - 0.0 - - - - - - -
28/09:00pm 20.1 SE 2 4 1015.6 - 0.0 - - - - - - -
28/08:30pm 20.4 SE 3 5 1015.6 - 0.0 - - - - - - -
28/08:00pm 20.6 ESE 3 4 1015.4 - 0.0 - - - - - - -
28/07:30pm 21.4 ESE 2 3 1015.1 - 0.0 - - - - - - -
28/07:00pm 22.1 ESE 3 4 1014.8 - 0.0 - - - - - - -
28/06:30pm 23.0 ESE 3 5 1014.3 - 0.0 - - - - - - -
28/06:00pm 24.6 ESE 3 5 1013.9 - 0.0 - - - - - - -
28/05:30pm 27.3 SE 4 8 1013.6 - 0.0 - - - - - - -
28/05:00pm 29.2 SE 5 8 1013.3 - 0.0 - - - - - - -
28/04:30pm 30.5 SSE 6 11 1013.2 - 0.0 - - - - - - -
28/04:00pm 31.0 SE 7 11 1012.9 - 0.0 - - - - - - -
28/03:30pm 31.8 SSE 6 11 1012.6 - 0.0 - - - - - - -
28/03:00pm 32.0 ESE 6 9 1012.7 - 0.0 - - - - - - -
28/02:30pm 32.5 E 7 12 1012.7 - 0.0 - - - - - - -
28/02:00pm 31.6 E 8 12 1012.9 - 0.0 - - - - - - -
28/01:30pm 31.8 E 8 15 1013.2 - 0.0 - - - - - - -
28/01:00pm 31.3 ESE 8 13 1013.7 - 0.0 - - - - - - -
28/12:30pm 32.2 ESE 8 13 1014.3 - 0.0 - - - - - - -
28/12:00pm 30.5 E 9 15 1014.9 - 0.0 - - - - - - -
28/11:30am 29.9 E 8 15 1015.4 - 0.0 - - - - - - -
28/11:00am 29.3 ESE 10 18 1016.0 - 0.0 - - - - - - -
28/10:30am 29.4 ESE 9 16 1016.6 - 0.0 - - - - - - -
28/10:00am 28.2 SE 10 17 1017.1 - 0.0 - - - - - - -
28/09:30am 27.9 ESE 9 17 1017.4 - 0.0 - - - - - - -
28/09:00am 27.3 ESE 9 18 1017.6 - 0.0 - - - - - - -
28/08:30am 26.4 ESE 12 19 1017.7 - 0.0 - - - - - - -
28/08:00am 25.9 ESE 9 20 1017.5 - 0.0 - - - - - - -
28/07:30am 24.8 SE 8 16 1017.5 - 0.0 - - - - - - -
28/07:00am 24.2 SE 8 17 1017.2 - 0.0 - - - - - - -

Other Formats:

Comma delimited format used in spreadsheet applications
http://www.bom.gov.au/fwo/IDW60701/IDW60701.94100.axf

JavaScript Object Notation format (JSON) in row-major order
http://www.bom.gov.au/fwo/IDW60701/IDW60701.94100.json